Time;durP1;ratioP1;P1;durP2;ratioP2;P2;SDS_P1;SDS_P2;PMS_P1;PMS_P2;Temp;Humidity;BMP_temperature;BMP_pressure;BME280_temperature;BME280_humidity;BME280_pressure;Samples;Min_cycle;Max_cycle;Signal;HPM_P1;HPM_P2
2022/05/16 00:01:04;;;;;;;8.82;2.85;;;;;;;21.60;30.28;98865.50;4487716;31;20398;-81
2022/05/16 00:03:30;;;;;;;7.72;2.80;;;;;;;21.67;30.90;98868.44;4486359;32;20105;-82
2022/05/16 00:05:55;;;;;;;8.65;2.67;;;;;;;21.66;30.42;98871.25;4487632;32;20122;-82
2022/05/16 00:08:20;;;;;;;8.45;2.65;;;;;;;21.68;30.49;98869.28;4486194;32;20124;-82
2022/05/16 00:10:46;;;;;;;10.48;2.65;;;;;;;21.45;29.80;98869.69;4486058;32;20119;-82
2022/05/16 00:13:11;;;;;;;10.27;2.80;;;;;;;21.36;29.72;98873.25;4486149;32;20127;-82
2022/05/16 00:15:37;;;;;;;8.82;2.78;;;;;;;21.48;29.83;98873.91;4485141;32;20151;-81
2022/05/16 00:18:04;;;;;;;9.70;2.50;;;;;;;21.41;29.63;98874.47;4486008;32;20144;-82
2022/05/16 00:20:29;;;;;;;7.87;2.67;;;;;;;21.62;29.45;98875.25;4487316;31;20081;-82
2022/05/16 00:22:55;;;;;;;10.20;2.85;;;;;;;21.63;29.55;98876.91;4487213;31;20156;-82
2022/05/16 00:25:20;;;;;;;8.60;2.60;;;;;;;21.75;29.68;98871.19;4487244;31;20084;-82
2022/05/16 00:27:46;;;;;;;8.85;2.95;;;;;;;21.71;30.16;98872.50;4487270;31;20108;-82
2022/05/16 00:30:17;;;;;;;7.90;2.62;;;;;;;21.76;30.25;98866.66;4486854;31;20137;-82
2022/05/16 00:32:42;;;;;;;8.05;2.67;;;;;;;21.66;30.53;98869.41;4486148;32;20104;-82
2022/05/16 00:35:10;;;;;;;8.60;2.60;;;;;;;21.63;30.52;98877.75;4487343;31;20092;-82
2022/05/16 00:37:35;;;;;;;10.10;3.17;;;;;;;21.66;30.29;98877.47;4487112;31;20118;-83
2022/05/16 00:40:00;;;;;;;8.88;2.60;;;;;;;21.64;30.46;98882.13;4487097;31;20096;-82
2022/05/16 00:42:26;;;;;;;10.52;2.62;;;;;;;21.64;31.06;98879.44;4486879;31;20469;-82
2022/05/16 00:44:52;;;;;;;9.02;2.83;;;;;;;21.65;31.50;98877.59;4487074;31;20124;-82
2022/05/16 00:47:18;;;;;;;8.70;2.70;;;;;;;21.61;31.67;98882.41;4487340;31;20167;-82
2022/05/16 00:49:48;;;;;;;11.20;2.92;;;;;;;21.58;31.82;98888.09;4487326;31;20092;-82
2022/05/16 00:52:33;;;;;;;9.02;2.50;;;;;;;21.58;31.17;98878.22;4485914;32;20096;-82
2022/05/16 00:55:11;;;;;;;9.00;2.67;;;;;;;21.55;31.35;98886.56;4486753;32;20088;-82
2022/05/16 00:57:45;;;;;;;9.70;2.87;;;;;;;21.47;30.69;98891.00;4486132;32;20458;-82
2022/05/16 01:00:18;;;;;;;9.50;2.87;;;;;;;21.43;30.12;98885.06;4486032;32;20450;-82
2022/05/16 01:05:35;;;;;;;7.50;2.67;;;;;;;21.39;34.84;98903.28;4485951;32;20518;-82
2022/05/16 01:08:08;;;;;;;9.23;3.25;;;;;;;21.28;35.05;98905.31;4486536;31;20115;-83
2022/05/16 01:10:34;;;;;;;11.40;3.10;;;;;;;21.25;35.11;98921.69;4486724;31;20701;-82
2022/05/16 01:13:01;;;;;;;11.55;3.35;;;;;;;21.23;35.22;98913.81;4485604;32;20502;-82
2022/05/16 01:15:36;;;;;;;10.77;3.25;;;;;;;21.07;35.47;98914.41;4486795;31;20118;-82
2022/05/16 01:18:06;;;;;;;8.43;2.60;;;;;;;21.09;35.64;98914.28;4485646;32;20096;-82
2022/05/16 01:20:40;;;;;;;11.00;3.28;;;;;;;21.14;35.79;98914.69;4485553;32;20085;-82
2022/05/16 01:23:06;;;;;;;8.07;2.97;;;;;;;20.96;35.36;98911.97;4486723;32;20167;-82
2022/05/16 01:25:31;;;;;;;10.27;3.00;;;;;;;21.05;35.45;98912.91;4486668;31;20503;-82
2022/05/16 01:27:59;;;;;;;10.73;3.28;;;;;;;21.06;35.97;98907.41;4486491;31;20092;-82
2022/05/16 01:30:31;;;;;;;9.30;3.15;;;;;;;21.05;35.96;98907.53;4485037;32;20127;-82
2022/05/16 01:32:57;;;;;;;8.38;3.00;;;;;;;20.99;36.00;98899.09;4485453;32;20159;-82
2022/05/16 01:35:25;;;;;;;12.50;3.50;;;;;;;20.99;36.10;98904.44;4486377;31;20084;-82
2022/05/16 01:40:36;;;;;;;7.82;2.78;;;;;;;20.93;34.93;98902.38;4486398;32;20574;-82
2022/05/16 01:43:01;;;;;;;10.23;3.35;;;;;;;20.92;35.31;98906.06;4485263;32;20176;-82
2022/05/16 01:45:27;;;;;;;10.32;3.67;;;;;;;20.88;35.37;98901.97;4486399;31;20394;-82
2022/05/16 01:47:52;;;;;;;12.23;3.35;;;;;;;20.91;35.34;98909.69;4485210;32;20108;-82
2022/05/16 01:50:18;;;;;;;11.65;3.50;;;;;;;20.92;35.25;98902.50;4486185;31;20107;-82
2022/05/16 01:52:43;;;;;;;10.77;3.17;;;;;;;20.87;35.01;98910.16;4486182;31;20136;-82
2022/05/16 01:55:09;;;;;;;10.38;3.17;;;;;;;20.75;35.22;98913.00;4485043;32;20124;-82
2022/05/16 01:57:34;;;;;;;8.80;3.05;;;;;;;20.72;35.18;98902.56;4484995;32;20115;-82
2022/05/16 02:00:00;;;;;;;10.38;3.30;;;;;;;20.71;35.11;98900.91;4486104;32;20432;-82
2022/05/16 02:02:26;;;;;;;10.43;3.55;;;;;;;20.75;35.35;98902.28;4484942;32;20132;-82
2022/05/16 02:04:52;;;;;;;11.05;3.42;;;;;;;20.56;35.85;98903.16;4486116;31;20539;-82
2022/05/16 02:07:17;;;;;;;11.75;3.25;;;;;;;20.72;35.62;98901.75;4484881;32;20136;-82
2022/05/16 02:09:43;;;;;;;9.50;3.20;;;;;;;20.70;35.50;98907.22;4484886;32;20089;-82
2022/05/16 02:12:09;;;;;;;9.85;3.10;;;;;;;20.69;35.48;98902.87;4485838;31;20097;-82
2022/05/16 02:14:35;;;;;;;14.65;3.42;;;;;;;20.75;35.50;98902.28;4486119;31;20153;-83
2022/05/16 02:17:00;;;;;;;9.50;3.00;;;;;;;20.69;35.75;98910.09;4485853;31;20107;-82
2022/05/16 02:19:25;;;;;;;9.30;3.22;;;;;;;20.73;35.57;98911.47;4485871;31;20077;-82
2022/05/16 02:24:48;;;;;;;8.90;3.25;;;;;;;20.73;35.66;98906.13;4452280;32;20686;-82
2022/05/16 02:27:19;;;;;;;8.75;3.33;;;;;;;20.73;35.78;98912.31;4426362;32;20112;-82
2022/05/16 02:29:45;;;;;;;10.30;2.92;;;;;;;20.74;35.79;98919.34;4439959;32;20112;-82
2022/05/16 02:32:11;;;;;;;9.73;3.03;;;;;;;20.73;35.80;98920.34;4439433;32;20133;-83
2022/05/16 02:34:37;;;;;;;12.35;3.65;;;;;;;20.83;35.58;98914.13;4452138;32;20093;-83
2022/05/16 02:37:03;;;;;;;9.05;3.12;;;;;;;20.81;35.93;98922.28;4439132;32;20244;-83
2022/05/16 02:39:29;;;;;;;8.93;3.00;;;;;;;20.80;35.79;98918.78;4453591;32;20081;-82
2022/05/16 02:41:54;;;;;;;10.20;3.10;;;;;;;20.83;35.68;98916.78;4441234;32;20183;-83
2022/05/16 02:44:21;;;;;;;9.75;3.37;;;;;;;20.83;35.83;98914.94;4454503;32;20112;-81
2022/05/16 02:46:47;;;;;;;11.20;3.20;;;;;;;20.83;35.68;98911.44;4441427;32;20081;-81
2022/05/16 02:49:13;;;;;;;9.18;2.83;;;;;;;20.88;35.91;98910.00;4441479;32;20459;-82
2022/05/16 02:51:38;;;;;;;9.77;3.00;;;;;;;20.94;35.97;98906.75;4441579;32;20105;-82
2022/05/16 02:54:04;;;;;;;10.30;3.60;;;;;;;20.90;36.12;98908.03;4454485;32;20109;-84
2022/05/16 02:56:29;;;;;;;8.50;2.97;;;;;;;20.92;35.83;98916.75;4454595;32;20453;-83
2022/05/16 02:58:55;;;;;;;11.27;3.78;;;;;;;20.99;35.81;98917.00;4441740;32;20093;-83
2022/05/16 03:01:20;;;;;;;10.85;3.58;;;;;;;21.01;35.68;98912.34;4484281;32;20164;-83
2022/05/16 03:03:46;;;;;;;9.50;3.30;;;;;;;20.93;35.85;98909.56;4488057;31;20147;-83
2022/05/16 03:06:12;;;;;;;10.80;3.60;;;;;;;20.92;35.91;98907.84;4486817;32;20173;-83
2022/05/16 03:08:38;;;;;;;9.75;3.30;;;;;;;20.95;36.00;98907.56;4488161;31;20122;-83
2022/05/16 03:11:04;;;;;;;11.98;3.40;;;;;;;20.96;35.98;98910.13;4486763;32;20150;-83
2022/05/16 03:13:31;;;;;;;9.23;3.00;;;;;;;20.93;36.30;98910.41;4486936;32;20151;-82
2022/05/16 03:15:58;;;;;;;11.18;3.78;;;;;;;20.94;36.61;98916.63;4488050;31;20478;-82
2022/05/16 03:18:24;;;;;;;12.93;4.05;;;;;;;20.91;36.62;98919.56;4486687;32;20114;-82
2022/05/16 03:20:51;;;;;;;10.35;3.30;;;;;;;20.98;36.33;98916.16;4486821;32;20101;-82
2022/05/16 03:23:16;;;;;;;8.70;3.37;;;;;;;20.99;36.60;98919.69;4486702;32;20511;-82
2022/05/16 03:25:41;;;;;;;9.90;3.53;;;;;;;21.08;36.57;98920.66;4473438;32;20143;-84
2022/05/16 03:28:07;;;;;;;12.55;3.70;;;;;;;21.10;36.42;98913.31;4486646;32;20088;-83
2022/05/16 03:30:32;;;;;;;9.00;3.28;;;;;;;21.13;36.17;98919.22;4487408;32;20128;-83
2022/05/16 03:32:58;;;;;;;8.70;3.33;;;;;;;21.31;35.82;98915.75;4487938;31;20092;-83
2022/05/16 03:35:24;;;;;;;12.65;3.62;;;;;;;21.30;36.36;98917.56;4486791;32;20088;-83
2022/05/16 03:37:49;;;;;;;10.75;3.33;;;;;;;21.40;35.97;98921.06;4487763;31;20152;-83
2022/05/16 03:42:59;;;;;;;9.95;3.20;;;;;;;21.59;34.37;98914.78;4486449;32;20175;-82
2022/05/16 03:45:25;;;;;;;8.38;3.45;;;;;;;21.70;34.50;98911.00;4486360;32;20089;-82
2022/05/16 03:47:50;;;;;;;11.38;3.08;;;;;;;21.80;34.27;98909.09;4486359;32;20085;-83
2022/05/16 03:50:15;;;;;;;11.52;3.40;;;;;;;21.87;34.37;98908.50;4487463;31;20371;-83
2022/05/16 03:52:41;;;;;;;8.32;3.00;;;;;;;22.03;34.11;98910.50;4486084;32;20122;-82
2022/05/16 03:55:09;;;;;;;9.95;3.30;;;;;;;22.07;33.29;98909.19;4487409;32;20111;-81
2022/05/16 03:57:34;;;;;;;11.23;3.10;;;;;;;22.11;33.45;98910.56;4486241;32;20397;-81
2022/05/16 03:59:59;;;;;;;7.68;2.67;;;;;;;22.22;32.64;98915.69;4487320;32;20157;-81
2022/05/16 04:02:25;;;;;;;8.43;2.60;;;;;;;22.38;32.10;98920.38;4473047;32;20226;-81
2022/05/16 04:04:50;;;;;;;11.30;2.78;;;;;;;22.51;31.68;98920.81;4487435;32;20088;-82
2022/05/16 04:07:16;;;;;;;9.32;2.58;;;;;;;22.74;30.79;98922.97;4487323;31;20128;-81
2022/05/16 04:09:41;;;;;;;9.40;2.35;;;;;;;22.93;31.12;98921.91;4487344;31;20181;-81
2022/05/16 04:12:07;;;;;;;6.93;2.62;;;;;;;22.99;30.08;98915.91;4487292;31;20115;-81
2022/05/16 04:14:33;;;;;;;10.60;2.72;;;;;;;22.99;30.68;98921.28;4487306;31;20140;-82
2022/05/16 04:16:58;;;;;;;8.63;2.75;;;;;;;22.68;29.42;98931.66;4486105;32;20394;-83
2022/05/16 04:19:25;;;;;;;9.15;2.72;;;;;;;22.63;29.83;98926.75;4487259;31;20085;-83
2022/05/16 04:21:50;;;;;;;10.05;2.65;;;;;;;23.15;29.43;98926.75;4486165;32;20710;-83
2022/05/16 04:24:16;;;;;;;7.20;2.33;;;;;;;23.31;29.27;98935.88;4487512;31;20110;-82
2022/05/16 04:26:42;;;;;;;8.02;2.22;;;;;;;23.52;29.52;98928.22;4487435;31;20365;-83
2022/05/16 04:29:07;;;;;;;7.78;2.35;;;;;;;23.68;28.77;98932.84;4487445;31;20160;-83
2022/05/16 04:31:32;;;;;;;8.65;2.55;;;;;;;23.91;28.19;98938.47;4487056;31;20080;-82
2022/05/16 04:33:58;;;;;;;9.80;2.60;;;;;;;23.95;28.01;98930.88;4486263;32;20489;-82
2022/05/16 04:36:23;;;;;;;8.27;2.70;;;;;;;23.90;27.33;98925.19;4486207;32;20084;-83
2022/05/16 04:38:49;;;;;;;10.10;2.40;;;;;;;23.79;27.89;98936.25;4487403;31;20088;-83
2022/05/16 04:43:58;;;;;;;10.48;2.70;;;;;;;23.66;28.64;98942.06;4487105;32;20172;-83
2022/05/16 04:46:24;;;;;;;7.50;2.20;;;;;;;23.72;29.36;98938.69;4487107;31;20088;-82
2022/05/16 04:48:49;;;;;;;8.10;2.40;;;;;;;23.80;29.93;98940.59;4486967;31;20368;-83
2022/05/16 04:51:15;;;;;;;8.43;2.20;;;;;;;23.94;28.52;98940.81;4485741;32;20438;-83
2022/05/16 04:53:40;;;;;;;8.45;2.55;;;;;;;24.22;29.34;98940.53;4485790;32;20491;-83
2022/05/16 04:56:06;;;;;;;7.90;2.47;;;;;;;24.45;27.39;98942.53;4472827;32;20140;-83
2022/05/16 04:58:33;;;;;;;11.02;2.05;;;;;;;24.55;27.22;98945.94;4486143;32;20109;-83
2022/05/16 05:01:02;;;;;;;7.50;2.25;;;;;;;24.59;27.14;98946.41;4486572;31;20145;-82
2022/05/16 05:03:28;;;;;;;7.95;2.20;;;;;;;24.37;26.91;98939.84;4487133;31;20486;-82
2022/05/16 05:05:53;;;;;;;10.20;2.40;;;;;;;24.65;27.27;98941.19;4487129;31;20104;-81
2022/05/16 05:08:19;;;;;;;8.52;2.37;;;;;;;24.71;27.32;98942.37;4487145;32;20088;-81
2022/05/16 05:16:16;;;;;;;7.30;2.10;;;;;;;24.53;27.59;98948.78;4486734;32;20102;-82
2022/05/16 05:18:42;;;;;;;9.13;2.20;;;;;;;24.59;27.04;98949.97;4485518;32;20092;-82
2022/05/16 05:21:08;;;;;;;10.73;2.55;;;;;;;24.60;27.31;98950.81;4486708;31;20114;-81
2022/05/16 05:23:34;;;;;;;7.15;2.25;;;;;;;24.75;27.01;98941.03;4485425;32;20084;-82
2022/05/16 05:26:01;;;;;;;11.98;3.03;;;;;;;24.66;27.05;98937.47;4486480;31;20107;-82
2022/05/16 05:28:26;;;;;;;8.40;2.47;;;;;;;24.56;26.74;98946.78;4486633;31;20114;-82
2022/05/16 05:30:51;;;;;;;8.18;2.30;;;;;;;24.50;27.55;98942.88;4484678;32;20234;-82
2022/05/16 05:33:17;;;;;;;7.00;2.20;;;;;;;24.63;27.60;98940.53;4485427;32;20080;-82
2022/05/16 05:35:42;;;;;;;8.35;2.20;;;;;;;24.84;26.14;98949.91;4485283;32;20144;-81
2022/05/16 05:38:09;;;;;;;7.47;2.20;;;;;;;25.09;26.52;98953.38;4486707;31;20405;-82
2022/05/16 05:40:37;;;;;;;10.23;2.33;;;;;;;25.19;26.63;98951.34;4486587;31;20135;-82
2022/05/16 05:43:07;;;;;;;9.15;2.30;;;;;;;25.34;25.88;98953.34;4492045;31;20092;-80
2022/05/16 05:45:33;;;;;;;9.70;2.40;;;;;;;25.39;26.22;98956.37;4484504;32;20127;-82
2022/05/16 05:47:59;;;;;;;8.20;2.10;;;;;;;25.49;25.93;98954.28;4484367;31;20126;-82
2022/05/16 05:50:24;;;;;;;9.57;2.35;;;;;;;25.51;25.05;98953.09;4483531;31;20372;-81
2022/05/16 05:52:50;;;;;;;8.57;2.33;;;;;;;25.49;25.66;98952.44;4489038;31;20132;-82
2022/05/16 05:55:16;;;;;;;10.15;2.62;;;;;;;25.75;26.09;98956.72;4464594;32;20372;-87
2022/05/16 05:57:53;;;;;;;6.95;2.50;;;;;;;25.47;25.22;98959.03;4494129;31;20104;-84
2022/05/16 06:00:19;;;;;;;8.77;2.40;;;;;;;25.41;25.75;98955.16;4486176;31;20153;-82
2022/05/16 06:02:45;;;;;;;9.88;2.80;;;;;;;25.60;26.30;98955.78;4492135;31;20135;-86
2022/05/16 06:05:15;;;;;;;7.22;2.10;;;;;;;25.86;26.14;98950.06;4489792;31;20474;-85
2022/05/16 06:07:53;;;;;;;9.45;2.17;;;;;;;25.97;25.86;98959.66;4489706;31;20158;-87
2022/05/16 06:10:21;;;;;;;12.75;2.17;;;;;;;26.12;24.99;98963.25;4493975;31;20104;-85
2022/05/16 06:12:47;;;;;;;9.27;2.40;;;;;;;25.81;25.12;98968.66;4488191;31;20123;-79
2022/05/16 06:15:14;;;;;;;8.40;2.37;;;;;;;25.93;26.01;98964.56;4487588;31;20096;-82
2022/05/16 06:17:40;;;;;;;7.70;2.35;;;;;;;26.12;25.78;98963.25;4488030;32;20085;-81
2022/05/16 06:20:08;;;;;;;8.48;2.25;;;;;;;26.25;25.80;98968.03;4488063;32;20585;-81
2022/05/16 06:22:37;;;;;;;8.52;2.40;;;;;;;26.25;24.83;98968.03;4487790;32;20088;-78
2022/05/16 06:27:54;;;;;;;7.25;2.28;;;;;;;26.54;24.71;98967.31;4484486;32;20512;-78
2022/05/16 06:30:20;;;;;;;8.02;2.30;;;;;;;26.54;24.42;98963.75;4473658;32;20100;-78
2022/05/16 06:32:47;;;;;;;8.48;2.33;;;;;;;26.70;24.91;98954.72;4487575;32;20089;-78
2022/05/16 06:35:13;;;;;;;7.53;2.37;;;;;;;26.69;25.29;98967.38;4488231;32;20427;-78
2022/05/16 06:37:38;;;;;;;8.50;2.42;;;;;;;26.39;24.36;98961.88;4473753;32;20123;-78
2022/05/16 06:40:05;;;;;;;9.45;2.75;;;;;;;26.55;24.51;98955.47;4487909;32;20110;-78
2022/05/16 06:42:30;;;;;;;8.30;2.10;;;;;;;26.54;24.83;98952.94;4473762;32;20092;-78
2022/05/16 06:44:56;;;;;;;9.70;2.17;;;;;;;26.59;26.00;98956.00;4487955;32;20076;-78
2022/05/16 06:47:21;;;;;;;9.27;2.22;;;;;;;26.64;24.53;98959.00;4487881;32;20372;-78
2022/05/16 06:49:47;;;;;;;10.98;2.53;;;;;;;26.51;25.29;98950.63;4487923;32;20389;-78
2022/05/16 06:52:12;;;;;;;13.35;2.67;;;;;;;26.58;24.98;98957.81;4487619;32;20088;-79
2022/05/16 06:54:38;;;;;;;8.23;2.20;;;;;;;26.54;24.55;98959.22;4487886;32;20096;-78
2022/05/16 06:57:04;;;;;;;8.18;2.33;;;;;;;26.61;24.70;98959.34;4473609;32;20143;-78
2022/05/16 06:59:29;;;;;;;9.32;2.78;;;;;;;26.57;25.45;98964.25;4473501;32;20414;-78
2022/05/16 07:01:54;;;;;;;11.43;2.80;;;;;;;26.66;25.04;98967.75;4487825;32;20108;-78
2022/05/16 07:04:20;;;;;;;9.68;2.83;;;;;;;26.83;25.13;98971.97;4473790;32;20072;-78
2022/05/16 07:06:45;;;;;;;8.10;2.60;;;;;;;26.94;24.85;98964.44;4488053;32;20172;-78
2022/05/16 07:09:11;;;;;;;8.65;2.62;;;;;;;26.91;24.50;98968.34;4487909;32;20088;-78
2022/05/16 07:11:36;;;;;;;11.05;2.97;;;;;;;26.99;24.78;98965.56;4487730;32;20118;-78
2022/05/16 07:14:01;;;;;;;9.35;2.47;;;;;;;27.02;24.40;98964.34;4487896;32;20162;-78
2022/05/16 07:16:27;;;;;;;9.25;2.67;;;;;;;27.03;24.33;98966.88;4487887;32;20110;-78
2022/05/16 07:18:52;;;;;;;8.05;2.35;;;;;;;27.19;24.55;98968.53;4487859;32;20088;-78
2022/05/16 07:21:18;;;;;;;11.65;2.87;;;;;;;27.26;24.35;98968.69;4487895;32;20107;-79
2022/05/16 07:23:45;;;;;;;9.55;2.58;;;;;;;27.20;24.65;98964.81;4473599;32;20076;-78
2022/05/16 07:28:54;;;;;;;9.75;2.30;;;;;;;27.29;24.29;98967.47;4475433;32;20118;-78
2022/05/16 07:31:20;;;;;;;10.00;2.62;;;;;;;27.22;24.48;98968.19;4460125;32;20084;-78
2022/05/16 07:33:45;;;;;;;8.68;2.25;;;;;;;27.23;23.95;98961.72;4487780;32;20100;-78
2022/05/16 07:36:11;;;;;;;8.75;2.50;;;;;;;27.36;23.66;98965.69;4473454;32;20100;-79
2022/05/16 07:38:36;;;;;;;8.60;2.40;;;;;;;27.35;24.81;98975.69;4487807;32;20443;-78
2022/05/16 07:41:02;;;;;;;7.68;2.22;;;;;;;27.42;24.32;98967.66;4473440;32;20081;-77
2022/05/16 07:43:28;;;;;;;9.45;2.20;;;;;;;27.33;23.50;98964.19;4487695;32;20145;-79
2022/05/16 07:45:53;;;;;;;8.70;2.20;;;;;;;27.35;23.99;98962.16;4473386;32;20104;-79
2022/05/16 07:48:19;;;;;;;8.25;2.10;;;;;;;27.42;23.67;98967.66;4487619;32;20435;-78
2022/05/16 07:50:45;;;;;;;8.75;2.20;;;;;;;27.29;23.69;98964.75;4487401;32;20352;-78
2022/05/16 07:53:12;;;;;;;8.20;2.05;;;;;;;27.38;23.88;98966.34;4473188;32;20076;-79
2022/05/16 07:55:42;;;;;;;7.72;2.15;;;;;;;27.28;23.26;98963.94;4473182;32;20386;-78
2022/05/16 07:58:08;;;;;;;8.50;2.20;;;;;;;27.45;23.87;98969.97;4473274;32;20164;-79
2022/05/16 08:00:33;;;;;;;6.45;2.00;;;;;;;27.48;23.35;98969.59;4473127;32;20144;-79
2022/05/16 08:02:59;;;;;;;8.98;2.03;;;;;;;27.80;22.68;98971.03;4487406;32;20149;-79
2022/05/16 08:05:25;;;;;;;12.73;2.60;;;;;;;28.07;22.75;98963.25;4487444;32;20122;-81
2022/05/16 08:10:37;;;;;;;9.35;2.47;;;;;;;28.23;21.86;98962.16;4487271;32;20114;-81
2022/05/16 08:13:08;;;;;;;7.65;2.30;;;;;;;28.35;22.14;98962.47;4487285;32;20145;-81
2022/05/16 08:15:35;;;;;;;9.20;2.50;;;;;;;28.51;22.09;98964.06;4473171;32;20112;-81
2022/05/16 08:18:05;;;;;;;7.78;2.17;;;;;;;28.49;21.76;98967.00;4473150;32;20159;-81
2022/05/16 08:20:31;;;;;;;9.90;2.40;;;;;;;28.46;21.70;98974.66;4487472;32;20096;-81
2022/05/16 08:22:57;;;;;;;7.03;2.20;;;;;;;28.52;21.63;98968.50;4487154;32;20075;-80
2022/05/16 08:25:23;;;;;;;9.90;2.40;;;;;;;28.54;21.76;98969.97;4487196;32;20115;-80
2022/05/16 08:27:52;;;;;;;9.13;2.75;;;;;;;28.59;22.07;98961.25;4487304;32;20118;-81
2022/05/16 08:30:22;;;;;;;12.68;2.55;;;;;;;28.89;22.19;98959.19;4473283;32;20136;-80
2022/05/16 08:32:48;;;;;;;12.70;3.10;;;;;;;28.97;20.83;98960.91;4472917;32;20110;-80
2022/05/16 08:35:14;;;;;;;9.15;2.45;;;;;;;29.02;21.56;98964.69;4487078;32;20152;-81
2022/05/16 08:40:34;;;;;;;8.07;2.40;;;;;;;29.26;21.19;98965.28;4487228;32;20114;-81
2022/05/16 08:43:05;;;;;;;8.75;2.25;;;;;;;29.39;20.63;98973.50;4472923;32;20114;-80
2022/05/16 08:45:37;;;;;;;8.88;2.25;;;;;;;29.26;20.71;98959.03;4472893;32;20104;-81
2022/05/16 08:48:10;;;;;;;10.90;2.72;;;;;;;29.49;21.09;98958.72;4487036;32;20088;-81
2022/05/16 08:50:43;;;;;;;11.60;2.30;;;;;;;29.64;21.30;98961.31;4472792;32;20144;-81
2022/05/16 08:53:12;;;;;;;9.20;1.98;;;;;;;29.81;20.70;98956.37;4472722;32;20205;-81
2022/05/16 08:56:05;;;;;;;10.98;2.33;;;;;;;29.48;20.68;98957.06;4486949;32;20153;-81
2022/05/16 08:58:35;;;;;;;14.65;2.50;;;;;;;29.54;21.33;98965.22;4483599;32;20501;-80
2022/05/16 09:01:18;;;;;;;10.40;2.45;;;;;;;29.35;21.46;98957.84;4472823;32;20076;-81
2022/05/16 09:03:45;;;;;;;10.63;2.28;;;;;;;29.20;21.15;98955.25;4472606;32;20146;-81
2022/05/16 09:06:23;;;;;;;10.23;2.35;;;;;;;29.03;22.05;98960.09;4472549;32;20104;-81
2022/05/16 09:09:02;;;;;;;10.65;2.20;;;;;;;29.14;21.77;98956.03;4472645;32;20483;-81
2022/05/16 09:11:51;;;;;;;8.15;2.10;;;;;;;29.03;22.13;98957.37;4472482;32;20092;-80
2022/05/16 09:14:25;;;;;;;;;;;;;;;28.99;22.31;98961.53;4472867;32;20482;-81
2022/05/16 09:17:02;;;;;;;11.32;2.37;;;;;;;28.96;22.10;98960.06;4486727;32;19990;-81
2022/05/16 09:20:12;;;;;;;10.98;2.20;;;;;;;28.92;21.99;98964.22;4486764;32;20239;-81
2022/05/16 09:22:57;;;;;;;8.43;2.60;;;;;;;28.99;21.35;98966.97;4412317;32;20097;-79
2022/05/16 09:25:25;;;;;;;10.70;2.40;;;;;;;29.08;21.25;98957.63;4406023;32;20176;-80
2022/05/16 09:30:38;;;;;;;7.65;2.10;;;;;;;28.91;21.77;98959.81;4396317;32;20184;-81
2022/05/16 09:33:25;;;;;;;10.77;3.28;;;;;;;29.06;22.16;98948.87;4405963;32;20117;-81
2022/05/16 09:36:04;;;;;;;9.85;2.17;;;;;;;29.01;21.32;98945.91;4394504;32;20085;-80
2022/05/16 09:38:31;;;;;;;11.30;2.33;;;;;;;29.05;21.31;98947.19;4394261;32;20153;-79
2022/05/16 09:40:59;;;;;;;8.20;2.40;;;;;;;28.86;21.87;98945.19;4381862;32;20208;-80
2022/05/16 09:43:26;;;;;;;7.90;2.62;;;;;;;28.78;22.01;98943.44;4406873;32;20117;-81
2022/05/16 09:46:00;;;;;;;8.32;2.40;;;;;;;28.72;22.09;98938.81;4394101;32;20353;-80
2022/05/16 09:48:25;;;;;;;8.18;2.50;;;;;;;28.67;21.95;98933.19;4407943;32;20281;-79
2022/05/16 09:51:06;;;;;;;9.60;2.60;;;;;;;28.65;22.56;98940.63;4408628;32;20110;-80
2022/05/16 09:53:43;;;;;;;12.90;3.12;;;;;;;28.41;22.84;98940.00;4404911;32;20151;-80
2022/05/16 09:56:29;;;;;;;8.25;2.30;;;;;;;28.38;22.77;98932.28;4420862;32;20184;-78
2022/05/16 09:59:07;;;;;;;8.45;2.40;;;;;;;28.47;23.00;98939.22;4416003;32;20096;-78
2022/05/16 10:01:44;;;;;;;8.20;2.20;;;;;;;28.26;22.67;98931.97;4472348;32;20111;-80
2022/05/16 10:04:19;;;;;;;9.82;2.47;;;;;;;28.43;22.78;98927.97;4472955;32;20112;-79
2022/05/16 10:07:01;;;;;;;6.70;2.33;;;;;;;28.38;22.72;98927.69;4486412;32;20093;-80
2022/05/16 10:09:38;;;;;;;9.02;2.35;;;;;;;28.27;22.74;98921.97;4486606;32;20118;-78
2022/05/16 10:12:06;;;;;;;10.77;2.45;;;;;;;28.22;22.44;98925.25;4486411;32;20093;-79
2022/05/16 10:14:32;;;;;;;10.32;2.60;;;;;;;28.24;22.72;98925.91;4472566;32;20106;-79
2022/05/16 10:16:57;;;;;;;7.68;2.25;;;;;;;28.08;22.49;98921.56;4486370;32;20097;-79
2022/05/16 10:19:26;;;;;;;11.43;2.50;;;;;;;28.21;22.84;98919.00;4472290;32;20112;-80
2022/05/16 10:22:04;;;;;;;7.20;2.30;;;;;;;28.15;22.38;98917.06;4468155;31;20172;-80
2022/05/16 10:24:33;;;;;;;10.70;2.62;;;;;;;27.79;23.20;98917.06;4503936;31;20071;-80
2022/05/16 10:27:07;;;;;;;10.18;2.50;;;;;;;27.90;22.75;98911.19;4489363;31;20108;-80
2022/05/16 10:29:35;;;;;;;9.20;2.55;;;;;;;27.89;22.57;98911.37;4489819;31;20084;-80
2022/05/16 10:35:04;;;;;;;11.30;2.60;;;;;;;28.11;23.01;98904.13;4503482;31;20854;-79
2022/05/16 10:37:31;;;;;;;8.10;2.72;;;;;;;28.44;22.78;98909.81;4489802;31;20137;-79
2022/05/16 10:40:03;;;;;;;;;;;;;;;28.61;22.32;98908.53;4489548;31;20828;-79
2022/05/16 10:42:38;;;;;;;7.37;2.30;;;;;;;28.95;21.78;98908.75;4489480;31;20006;-78
2022/05/16 10:45:06;;;;;;;7.62;2.35;;;;;;;29.06;21.45;98910.06;4489250;31;20114;-79
2022/05/16 10:47:37;;;;;;;7.12;2.20;;;;;;;29.47;21.52;98909.25;4503237;31;20108;-79
2022/05/16 10:50:30;;;;;;;8.80;2.42;;;;;;;29.68;21.44;98908.28;4489284;31;20134;-81
2022/05/16 10:53:06;;;;;;;9.85;2.72;;;;;;;29.72;21.11;98904.09;4489178;31;20168;-82
2022/05/16 10:55:58;;;;;;;8.27;2.58;;;;;;;30.06;20.93;98899.62;4484525;32;20395;-81
2022/05/16 10:58:32;;;;;;;8.73;2.75;;;;;;;30.08;21.24;98902.97;4487846;31;20344;-82
2022/05/16 11:01:11;;;;;;;9.77;2.50;;;;;;;30.01;20.82;98896.66;4487565;31;20116;-82
2022/05/16 11:03:53;;;;;;;8.82;2.58;;;;;;;29.75;21.52;98893.69;4503589;31;20457;-81
2022/05/16 11:06:24;;;;;;;8.32;2.72;;;;;;;29.67;21.13;98893.00;4489187;31;20084;-82
2022/05/16 11:09:05;;;;;;;10.25;3.05;;;;;;;29.37;21.45;98891.44;4503547;31;20102;-82
2022/05/16 11:12:02;;;;;;;9.68;2.72;;;;;;;29.35;21.69;98888.09;4503450;31;20088;-83
2022/05/16 11:15:05;;;;;;;7.78;2.30;;;;;;;29.16;22.33;98892.41;4503499;31;20123;-82
2022/05/16 11:17:39;;;;;;;8.45;2.90;;;;;;;29.07;21.96;98884.59;4495116;31;20073;-81
2022/05/16 11:20:16;;;;;;;8.57;2.55;;;;;;;28.88;22.35;98883.44;4489094;31;20079;-81
2022/05/16 11:22:43;;;;;;;10.38;3.40;;;;;;;28.84;22.33;98877.62;4489308;31;20093;-81
2022/05/16 11:25:39;;;;;;;8.02;2.40;;;;;;;28.69;23.00;98874.19;4488786;31;20122;-83
2022/05/16 11:28:17;;;;;;;10.77;2.55;;;;;;;28.60;22.96;98873.47;4489024;31;20111;-82
2022/05/16 11:30:55;;;;;;;9.10;2.75;;;;;;;28.46;23.35;98872.53;4503241;31;20080;-82
2022/05/16 11:33:26;;;;;;;9.30;2.75;;;;;;;28.43;23.03;98865.63;4488687;31;20453;-87
2022/05/16 11:36:12;;;;;;;10.57;2.87;;;;;;;28.35;22.65;98870.34;4502250;31;20176;-86
2022/05/16 11:38:55;;;;;;;8.68;2.50;;;;;;;28.34;23.14;98858.69;4475497;31;20092;-86
2022/05/16 11:41:51;;;;;;;9.93;2.65;;;;;;;28.37;23.62;98863.69;4489037;31;20137;-85
2022/05/16 11:44:30;;;;;;;9.35;2.83;;;;;;;28.48;23.64;98859.59;4495175;31;20084;-92
2022/05/16 11:47:29;;;;;;;9.18;2.72;;;;;;;28.48;24.13;98856.06;4485947;31;20216;-91
2022/05/16 11:50:08;;;;;;;9.57;2.75;;;;;;;28.50;24.96;98857.53;4488864;31;20147;-90
2022/05/16 11:52:33;;;;;;;8.85;2.78;;;;;;;28.53;24.03;98840.94;4502840;31;20098;-92
2022/05/16 12:00:51;;;;;;;9.43;2.72;;;;;;;28.62;23.84;98847.84;4490884;31;20493;-86
2022/05/16 12:03:19;;;;;;;11.35;2.92;;;;;;;28.64;24.12;98839.50;4502908;31;20076;-86
2022/05/16 12:05:50;;;;;;;10.35;2.65;;;;;;;28.71;23.76;98839.56;4482968;32;20112;-88
2022/05/16 12:08:25;;;;;;;9.07;3.05;;;;;;;28.74;24.24;98836.44;4487490;32;20450;-89
2022/05/16 12:10:58;;;;;;;10.32;3.05;;;;;;;28.66;24.35;98834.72;4486167;32;20081;-82
2022/05/16 12:13:33;;;;;;;11.40;3.00;;;;;;;28.72;24.25;98827.69;4486992;32;20412;-82
2022/05/16 12:16:17;;;;;;;11.40;2.80;;;;;;;28.75;25.01;98841.66;4472704;32;20100;-82
2022/05/16 12:18:51;;;;;;;9.90;3.28;;;;;;;29.05;24.50;98833.25;4472924;32;20096;-85
2022/05/16 12:21:32;;;;;;;10.85;3.20;;;;;;;29.01;24.29;98832.84;4472979;32;20472;-83
2022/05/16 12:24:01;;;;;;;10.25;2.85;;;;;;;28.96;25.47;98829.91;4487210;32;20529;-83